Polacca, Arizona
Current Conditions -  °F | °C
As of 11:56 PM on Wednesday 26 Nov 2014 (Local Time) from KINW Reporting Station
Clear Clear  
Wind Chill: 29°   Ceiling: Unl
Heat Index: 29°   Visibility: 10mi
Dew Point: 12°   Wind: 0mph
Humidity: 49%   Direction: NA
Pressure: 30.45"   Gusts: NA
Location:  35.84°N, 110.38°W
Report Text: KINW 270656Z AUTO 00000KT 10SM CLR M02/M11 A3045 RMK AO2 SLP308 T10171111 401671072
Loading
Personal Weather Stations






























Interactive Weather Map New forecast layout! Learn more

10-Day Weather Forecast

Advertisements
Track Severe Weather on mobile